This is the latest recevied weather packets stored in our database for station/object KY0TEQ-13. If no packets are shown the sender has not sent any weather packets the latest 10 day(s).
| Time | Temp. | Humidity | Pressure | Rain* | Wind** | Luminosity | Snow |
|---|---|---|---|---|---|---|---|
| 1788334696 | 13.33° C | 52% | 1310 hPa | 0 mm | - | 0 W/m² | - |
| 1788334392 | 13.89° C | 48% | 1310 hPa | 0 mm | - | 0 W/m² | - |
| 1788334088 | 13.89° C | 48% | 1310 hPa | 0 mm | - | 0 W/m² | - |
| 1788333783 | 13.89° C | 48% | 1310 hPa | 0 mm | - | 0 W/m² | - |
| 1788333480 | 13.89° C | 48% | 1310 hPa | 0 mm | - | 0 W/m² | - |
| 1788333174 | 13.89° C | 48% | 1309.9 hPa | 0 mm | - | 0 W/m² | - |
| 1788332870 | 13.89° C | 48% | 1310 hPa | 0 mm | - | 0 W/m² | - |
| 1788332570 | 13.89° C | 48% | 1310 hPa | 0 mm | - | 0 W/m² | - |
| 1788332269 | 13.89° C | 48% | 1309.9 hPa | 0 mm | - | 0 W/m² | - |
| 1788331964 | 13.89° C | 49% | 1310 hPa | 0 mm | - | 0 W/m² | - |
| 1788331659 | 13.33° C | 50% | 1309.7 hPa | 0 mm | - | 0 W/m² | - |
| 1788331356 | 13.33° C | 50% | 1310 hPa | 0 mm | - | 0 W/m² | - |
| 1788331052 | 13.33° C | 52% | 1309.9 hPa | 0 mm | - | 0 W/m² | - |
| 1788330752 | 13.33° C | 53% | 1310 hPa | 0 mm | - | 0 W/m² | - |
| 1788330446 | 13.33° C | 53% | 1310 hPa | 0 mm | - | 0 W/m² | - |
| 1788330141 | 12.78° C | 56% | 1309.9 hPa | 0 mm | - | 0 W/m² | - |
| 1788329839 | 12.78° C | 55% | 1310 hPa | 0 mm | - | 0 W/m² | - |
| 1788329535 | 10° C | 67% | 1309.9 hPa | 0 mm | - | 0 W/m² | - |
| 1788329232 | 11.67° C | 64% | 1310 hPa | 0 mm | - | 0 W/m² | - |
| 1788328928 | 11.67° C | 61% | 1310 hPa | 0 mm | - | 0 W/m² | - |
| 1788328623 | 11.67° C | 61% | 1310.1 hPa | 0 mm | - | 0 W/m² | - |
| 1788328319 | 11.67° C | 59% | 1309.9 hPa | 0 mm | - | 0 W/m² | - |
| 1788328014 | 13.33° C | 55% | 1310 hPa | 0 mm | - | 0 W/m² | - |
| 1788327709 | 13.33° C | 54% | 1310 hPa | 0 mm | - | 0 W/m² | - |
| 1788327404 | 13.33° C | 54% | 1309.7 hPa | 0 mm | - | 0 W/m² | - |
* Rain latest hour (hover to see other rain measurements)
** Current wind speed in m/s (hover to see current wind gust speed)